createdAt,value
2023-03-05T04:01:31.812Z,105.20
2023-03-05T04:03:59.070Z,103.00
2023-03-05T04:06:26.344Z,100.13
2023-03-05T04:08:53.824Z,93.77
2023-03-05T04:11:21.069Z,98.90
2023-03-05T04:13:49.094Z,82.97
2023-03-05T04:16:17.296Z,90.07
2023-03-05T04:18:44.757Z,88.27
2023-03-05T04:21:12.389Z,95.13
2023-03-05T04:23:40.134Z,89.17
2023-03-05T04:26:07.334Z,82.83
2023-03-05T04:28:35.502Z,77.20
2023-03-05T04:31:03.447Z,86.77
2023-03-05T04:33:30.710Z,75.97
2023-03-05T04:35:57.992Z,89.77
2023-03-05T04:38:25.276Z,88.10
2023-03-05T04:40:52.530Z,86.87
2023-03-05T04:43:19.692Z,72.90
2023-03-05T04:45:46.894Z,72.93
2023-03-05T04:48:14.222Z,79.73
2023-03-05T04:50:41.435Z,80.00
2023-03-05T04:53:08.660Z,77.03
2023-03-05T04:55:35.818Z,77.30
2023-03-05T04:58:03.182Z,77.63
2023-03-05T05:00:30.363Z,80.50
2023-03-05T05:02:57.734Z,83.77
2023-03-05T05:05:27.132Z,82.60
2023-03-05T05:07:56.458Z,78.07
2023-03-05T05:10:27.533Z,83.43
2023-03-05T05:12:54.892Z,87.80
2023-03-05T05:15:22.106Z,71.17
2023-03-05T05:17:49.458Z,70.17
2023-03-05T05:20:17.593Z,74.67
2023-03-05T05:22:44.794Z,74.00
2023-03-05T05:25:12.204Z,70.10
2023-03-05T05:27:40.175Z,75.07
2023-03-05T05:30:09.745Z,68.60
2023-03-05T05:32:36.984Z,71.00
2023-03-05T05:35:04.471Z,67.00
2023-03-05T05:37:31.717Z,82.97
2023-03-05T05:39:59.106Z,73.47
2023-03-05T05:42:26.298Z,77.70
2023-03-05T05:44:55.483Z,77.40
2023-03-05T05:47:22.702Z,77.67
2023-03-05T05:49:49.985Z,68.13
2023-03-05T05:52:17.486Z,72.63
2023-03-05T05:54:44.943Z,73.60
2023-03-05T05:57:12.094Z,71.17
2023-03-05T05:59:39.573Z,71.57
2023-03-05T06:02:07.995Z,72.70
2023-03-05T06:04:36.132Z,65.50
2023-03-05T06:07:04.229Z,74.40
2023-03-05T06:09:31.420Z,71.13
2023-03-05T06:11:58.645Z,79.33
2023-03-05T06:14:25.910Z,69.43
2023-03-05T06:16:53.278Z,68.27
2023-03-05T06:19:20.549Z,73.20
2023-03-05T06:21:47.725Z,69.20
2023-03-05T06:24:15.043Z,75.63
2023-03-05T06:26:42.325Z,73.23
2023-03-05T06:29:09.536Z,66.13
2023-03-05T06:31:37.390Z,64.60
2023-03-05T06:34:04.871Z,73.83
2023-03-05T06:36:32.226Z,73.50
2023-03-05T06:38:59.578Z,72.33
2023-03-05T06:41:29.427Z,66.23
2023-03-05T06:43:57.527Z,72.33
2023-03-05T06:46:29.900Z,69.83
2023-03-05T06:48:59.891Z,67.93
2023-03-05T06:51:32.612Z,72.60
2023-03-05T06:54:12.228Z,73.33
2023-03-05T06:56:41.581Z,70.63
2023-03-05T06:59:10.819Z,63.93
2023-03-05T07:01:38.306Z,65.30
2023-03-05T07:04:06.825Z,65.20
2023-03-05T07:06:36.202Z,71.00
2023-03-05T07:09:05.565Z,64.60
2023-03-05T07:11:34.138Z,75.67
2023-03-05T07:14:01.771Z,75.63
2023-03-05T07:16:31.623Z,85.73
2023-03-05T07:19:00.828Z,69.67
2023-03-05T07:21:29.880Z,71.03
2023-03-05T07:23:58.969Z,71.53
2023-03-05T07:26:27.642Z,64.40
2023-03-05T07:28:55.214Z,69.77
2023-03-05T07:31:27.433Z,69.17
2023-03-05T07:33:54.737Z,66.53
2023-03-05T07:36:21.996Z,66.13
2023-03-05T07:38:49.288Z,62.57
2023-03-05T07:41:21.152Z,63.53
2023-03-05T07:43:50.724Z,65.50
2023-03-05T07:46:19.761Z,63.17
2023-03-05T07:48:47.048Z,62.83
2023-03-05T07:51:17.803Z,58.80
2023-03-05T07:53:46.483Z,59.53
2023-03-05T07:56:14.195Z,57.27
2023-03-05T07:58:41.442Z,68.33
2023-03-05T08:01:15.609Z,60.90
2023-03-05T08:03:43.265Z,61.97
2023-03-05T08:06:11.783Z,62.47
2023-03-05T08:08:39.328Z,63.63
2023-03-05T08:11:12.038Z,58.97
2023-03-05T08:13:39.962Z,63.97
2023-03-05T08:16:10.952Z,54.63
2023-03-05T08:18:38.273Z,48.03
2023-03-05T08:21:06.085Z,59.43
2023-03-05T08:23:34.537Z,50.50
2023-03-05T08:26:01.897Z,53.90
2023-03-05T08:28:29.070Z,53.43
2023-03-05T08:30:56.433Z,46.93
2023-03-05T08:33:23.649Z,54.53
2023-03-05T08:35:50.866Z,49.63
2023-03-05T08:38:20.952Z,45.40
2023-03-05T08:40:48.708Z,52.83
2023-03-05T08:43:17.752Z,50.10
2023-03-05T08:45:49.619Z,47.50
2023-03-05T08:48:16.837Z,50.90
2023-03-05T08:50:44.256Z,46.63
2023-03-05T08:53:11.455Z,46.37
2023-03-05T08:55:38.815Z,49.77
2023-03-05T08:58:05.991Z,53.30
2023-03-05T09:00:33.270Z,46.43
2023-03-05T09:03:00.499Z,45.63
2023-03-05T09:05:27.860Z,54.80
2023-03-05T09:07:55.116Z,37.67
2023-03-05T09:10:22.342Z,37.93
2023-03-05T09:12:49.637Z,39.00
2023-03-05T09:15:16.870Z,37.50
2023-03-05T09:17:44.027Z,39.43
2023-03-05T09:20:13.189Z,25.10
2023-03-05T09:22:40.576Z,22.83
2023-03-05T09:25:10.740Z,23.03
2023-03-05T09:27:38.667Z,24.57
2023-03-05T09:30:06.982Z,26.80
2023-03-05T09:32:34.334Z,27.70
2023-03-05T09:35:01.621Z,30.43
2023-03-05T09:37:29.426Z,26.33
2023-03-05T09:39:57.221Z,25.63
2023-03-05T09:42:44.090Z,26.73
2023-03-05T09:45:32.338Z,28.17
2023-03-05T09:48:09.828Z,28.63
2023-03-05T09:50:42.317Z,26.70
2023-03-05T09:53:35.097Z,25.27
2023-03-05T09:56:12.141Z,26.33
2023-03-05T09:58:59.554Z,22.60
2023-03-05T10:01:50.432Z,23.93
2023-03-05T10:04:28.755Z,21.10
2023-03-05T10:07:02.721Z,23.40
2023-03-05T10:09:56.067Z,24.15
2023-03-05T10:12:32.633Z,19.03
2023-03-05T10:15:03.027Z,21.37
2023-03-05T10:17:55.340Z,18.73
2023-03-05T10:20:44.604Z,17.60
2023-03-05T10:23:36.285Z,13.63
2023-03-05T10:26:25.056Z,16.00
2023-03-05T10:29:18.431Z,17.93
2023-03-05T10:32:10.826Z,24.50
2023-03-05T10:34:55.484Z,20.67
2023-03-05T10:37:41.131Z,20.53
2023-03-05T10:40:13.557Z,18.30
2023-03-05T10:43:14.881Z,20.33
2023-03-05T10:45:45.476Z,21.52
2023-03-05T10:48:24.610Z,21.13
2023-03-05T10:51:04.610Z,20.67
2023-03-05T10:53:52.977Z,20.87
2023-03-05T10:56:23.250Z,19.97
2023-03-05T10:58:52.681Z,20.73
2023-03-05T11:01:28.584Z,19.87
2023-03-05T11:04:00.206Z,19.43
2023-03-05T11:06:40.478Z,24.30
2023-03-05T11:09:19.325Z,21.53
2023-03-05T11:12:15.823Z,24.97
2023-03-05T11:15:09.282Z,23.30
2023-03-05T11:17:44.746Z,19.83
2023-03-05T11:20:26.976Z,23.97
2023-03-05T11:23:15.688Z,25.63
2023-03-05T11:25:54.096Z,24.13
2023-03-05T11:28:32.890Z,23.67
2023-03-05T11:31:20.589Z,22.23
2023-03-05T11:34:01.585Z,23.00
2023-03-05T11:36:32.003Z,24.17
2023-03-05T11:39:07.889Z,19.70
2023-03-05T11:41:48.598Z,28.40
2023-03-05T11:44:49.619Z,24.37
2023-03-05T11:47:23.858Z,22.90
2023-03-05T11:49:55.917Z,30.50
2023-03-05T11:52:32.166Z,22.00
2023-03-05T11:55:15.549Z,23.43
2023-03-05T11:58:01.569Z,26.93
2023-03-05T12:00:31.377Z,25.07
2023-03-05T12:03:04.267Z,22.97
2023-03-05T12:05:32.771Z,23.33
2023-03-05T12:08:02.259Z,17.98
2023-03-05T12:10:29.462Z,23.33
2023-03-05T12:13:06.814Z,20.60
2023-03-05T12:15:37.070Z,24.85
2023-03-05T12:18:28.783Z,17.23
2023-03-05T12:21:14.038Z,21.50
2023-03-05T12:24:04.847Z,26.00
2023-03-05T12:26:54.282Z,25.30
2023-03-05T12:29:42.840Z,28.67
2023-03-05T12:32:43.211Z,28.40
2023-03-05T12:35:36.924Z,24.60
2023-03-05T12:38:26.908Z,24.13
2023-03-05T12:41:23.179Z,26.55
2023-03-05T12:44:05.379Z,28.77
2023-03-05T12:46:35.712Z,24.90
2023-03-05T12:49:18.065Z,29.70
2023-03-05T12:51:47.799Z,24.55
2023-03-05T12:54:20.593Z,22.65
2023-03-05T12:56:48.101Z,26.23
2023-03-05T12:59:21.523Z,24.35
2023-03-05T13:01:59.309Z,28.20
2023-03-05T13:04:31.093Z,24.27
2023-03-05T13:07:04.349Z,27.67
2023-03-05T13:09:36.230Z,39.80
2023-03-05T13:12:11.534Z,26.27
2023-03-05T13:14:56.944Z,27.40
2023-03-05T13:17:31.687Z,23.73
2023-03-05T13:20:00.695Z,25.37
2023-03-05T13:22:28.338Z,28.23
2023-03-05T13:25:20.633Z,27.03
2023-03-05T13:27:47.894Z,27.07
2023-03-05T13:30:24.061Z,27.77
2023-03-05T13:33:02.924Z,25.10
2023-03-05T13:35:34.484Z,25.70
2023-03-05T13:38:02.190Z,19.47
2023-03-05T13:40:31.555Z,22.60
2023-03-05T13:43:18.182Z,20.03
2023-03-05T13:45:54.949Z,22.10
2023-03-05T13:48:22.709Z,23.73
2023-03-05T13:50:59.102Z,29.93
2023-03-05T13:53:31.526Z,23.70
2023-03-05T13:56:01.760Z,27.33
2023-03-05T13:58:53.714Z,28.10
2023-03-05T14:01:57.478Z,25.83
2023-03-05T14:04:41.237Z,26.27
2023-03-05T14:07:31.371Z,24.73
2023-03-05T14:09:59.938Z,21.40
2023-03-05T14:12:42.588Z,27.00
2023-03-05T14:15:39.801Z,25.23
2023-03-05T14:18:12.540Z,24.27
2023-03-05T14:20:41.476Z,27.90
2023-03-05T14:23:43.116Z,26.70
2023-03-05T14:26:29.407Z,24.92
2023-03-05T14:29:04.452Z,32.13
2023-03-05T14:31:45.675Z,29.30
2023-03-05T14:34:24.450Z,25.93
2023-03-05T14:36:54.043Z,23.10
2023-03-05T14:39:34.393Z,24.67
2023-03-05T14:42:39.265Z,16.00
2023-03-05T14:45:15.896Z,24.27
2023-03-05T14:47:43.555Z,23.43
2023-03-05T14:50:18.718Z,21.70
2023-03-05T14:52:47.256Z,19.50
2023-03-05T14:55:20.117Z,24.70
2023-03-05T14:57:48.110Z,23.33
2023-03-05T15:00:24.584Z,23.00
2023-03-05T15:02:52.411Z,22.33
2023-03-05T15:05:20.385Z,22.53
2023-03-05T15:07:48.534Z,37.17
2023-03-05T15:10:17.991Z,23.70
2023-03-05T15:12:45.511Z,23.87
2023-03-05T15:15:16.488Z,26.17
2023-03-05T15:17:48.625Z,18.37
2023-03-05T15:20:24.818Z,29.73
2023-03-05T15:22:52.743Z,20.50
2023-03-05T15:25:22.662Z,20.77
2023-03-05T15:27:50.989Z,18.73
2023-03-05T15:30:31.090Z,24.43
2023-03-05T15:33:01.671Z,22.30
2023-03-05T15:35:29.236Z,28.97
2023-03-05T15:37:57.913Z,23.60
2023-03-05T15:40:27.639Z,24.10
2023-03-05T15:42:56.322Z,21.27
2023-03-05T15:45:23.678Z,26.60
2023-03-05T15:47:52.798Z,25.93
2023-03-05T15:50:21.333Z,25.33
2023-03-05T15:52:49.346Z,24.17
2023-03-05T15:55:18.308Z,29.37
2023-03-05T15:57:48.313Z,22.30
2023-03-05T16:00:18.638Z,22.93
2023-03-05T16:02:45.838Z,23.73
2023-03-05T16:05:13.128Z,13.67
2023-03-05T16:07:44.296Z,22.43
2023-03-05T16:10:17.635Z,21.77
2023-03-05T16:12:47.114Z,22.07
2023-03-05T16:15:19.844Z,19.73
2023-03-05T16:17:50.684Z,23.87
2023-03-05T16:20:18.225Z,26.20
2023-03-05T16:22:46.389Z,23.73
2023-03-05T16:25:13.758Z,18.60
2023-03-05T16:27:40.986Z,25.57
2023-03-05T16:30:10.033Z,23.30
2023-03-05T16:32:38.500Z,44.80
2023-03-05T16:35:06.328Z,22.27
2023-03-05T16:37:33.668Z,25.17
2023-03-05T16:40:00.930Z,24.00
2023-03-05T16:42:28.136Z,16.20
2023-03-05T16:44:55.378Z,21.07
2023-03-05T16:47:22.560Z,23.93
2023-03-05T16:49:49.768Z,33.33
2023-03-05T16:52:19.817Z,22.63
2023-03-05T16:54:48.496Z,22.93
2023-03-05T16:57:16.115Z,27.93
2023-03-05T16:59:43.932Z,31.50
2023-03-05T17:02:13.220Z,23.57
2023-03-05T17:04:40.700Z,27.60
2023-03-05T17:07:08.266Z,22.13
2023-03-05T17:09:36.114Z,30.70
2023-03-05T17:12:03.603Z,24.07
2023-03-05T17:14:30.817Z,27.83
2023-03-05T17:16:58.097Z,22.37
2023-03-05T17:19:25.342Z,23.10
2023-03-05T17:21:52.630Z,21.63
2023-03-05T17:24:22.355Z,26.00
2023-03-05T17:26:50.394Z,22.13
2023-03-05T17:29:19.054Z,17.83
2023-03-05T17:31:46.838Z,20.90
2023-03-05T17:34:15.651Z,19.27
2023-03-05T17:36:45.251Z,22.27
2023-03-05T17:39:13.184Z,20.30
2023-03-05T17:41:40.382Z,24.03
2023-03-05T17:44:07.552Z,24.57
2023-03-05T17:46:34.754Z,20.40
2023-03-05T17:49:01.906Z,19.60
2023-03-05T17:51:29.065Z,19.40
2023-03-05T17:53:56.343Z,14.60
2023-03-05T17:56:25.200Z,23.87
2023-03-05T17:58:53.622Z,24.33
2023-03-05T18:01:31.956Z,24.30
2023-03-05T18:03:59.718Z,22.43
2023-03-05T18:06:27.608Z,23.93
2023-03-05T18:08:54.818Z,19.43
2023-03-05T18:11:22.090Z,25.43
2023-03-05T18:13:49.834Z,22.13
2023-03-05T18:16:18.176Z,20.83
2023-03-05T18:18:45.672Z,25.93
2023-03-05T18:21:17.761Z,23.27
2023-03-05T18:23:45.249Z,23.37
2023-03-05T18:26:12.602Z,27.33
2023-03-05T18:28:39.954Z,27.53
2023-03-05T18:31:07.268Z,25.57
2023-03-05T18:33:34.645Z,23.80
2023-03-05T18:36:01.909Z,23.77
2023-03-05T18:38:29.721Z,24.43
2023-03-05T18:40:57.337Z,22.90
2023-03-05T18:43:24.836Z,34.30
2023-03-05T18:45:54.639Z,25.53
2023-03-05T18:48:22.240Z,20.40
2023-03-05T18:50:51.400Z,26.10
2023-03-05T18:53:19.276Z,23.90
2023-03-05T18:55:46.516Z,23.53
2023-03-05T18:58:14.255Z,26.17
2023-03-05T19:00:44.786Z,31.33
2023-03-05T19:03:13.318Z,25.43
2023-03-05T19:05:41.687Z,26.27
2023-03-05T19:08:08.942Z,26.47
2023-03-05T19:10:36.378Z,28.63
2023-03-05T19:13:32.956Z,30.37
2023-03-05T19:16:02.325Z,25.77
2023-03-05T19:18:33.703Z,23.97
2023-03-05T19:21:00.843Z,16.73
2023-03-05T19:23:28.059Z,26.87
2023-03-05T19:25:55.378Z,27.37
2023-03-05T19:28:22.540Z,42.00
2023-03-05T19:30:50.250Z,41.47
2023-03-05T19:33:17.488Z,27.43
2023-03-05T19:35:44.721Z,34.77
2023-03-05T19:38:11.945Z,29.40
2023-03-05T19:40:41.571Z,41.57
2023-03-05T19:43:08.802Z,33.40
2023-03-05T19:45:36.017Z,27.17
2023-03-05T19:48:03.224Z,25.40
2023-03-05T19:50:31.158Z,25.63
2023-03-05T19:52:59.432Z,25.40
2023-03-05T19:55:26.638Z,30.73
2023-03-05T19:57:53.782Z,29.30
2023-03-05T20:00:21.456Z,25.20
2023-03-05T20:02:48.733Z,30.43
2023-03-05T20:05:15.981Z,32.37
2023-03-05T20:07:43.182Z,46.17
2023-03-05T20:10:10.987Z,34.07
2023-03-05T20:12:39.217Z,36.73
2023-03-05T20:15:06.841Z,26.87
2023-03-05T20:17:34.046Z,34.50
2023-03-05T20:20:01.247Z,29.67
2023-03-05T20:22:28.405Z,24.67
2023-03-05T20:24:55.642Z,30.73
2023-03-05T20:27:22.826Z,32.80
2023-03-05T20:29:50.087Z,38.57
2023-03-05T20:32:17.326Z,28.00
2023-03-05T20:34:44.502Z,26.60
2023-03-05T20:37:11.871Z,26.23
2023-03-05T20:39:39.011Z,40.73
2023-03-05T20:42:06.312Z,32.03
2023-03-05T20:44:33.476Z,25.10
2023-03-05T20:47:12.623Z,29.17
2023-03-05T20:49:39.859Z,39.87
2023-03-05T20:52:07.046Z,24.60
2023-03-05T20:54:34.304Z,39.17
2023-03-05T20:57:01.507Z,36.80
2023-03-05T20:59:28.708Z,30.90
2023-03-05T21:01:55.878Z,26.87
2023-03-05T21:04:23.249Z,23.13
2023-03-05T21:06:54.026Z,31.87
2023-03-05T21:09:21.420Z,33.93
2023-03-05T21:11:48.645Z,56.47
2023-03-05T21:14:15.858Z,42.20
2023-03-05T21:16:43.044Z,29.97
2023-03-05T21:19:10.306Z,25.53
2023-03-05T21:21:39.037Z,29.50
2023-03-05T21:24:06.556Z,25.03
2023-03-05T21:26:33.902Z,29.43
2023-03-05T21:29:01.076Z,43.63
2023-03-05T21:31:28.316Z,41.57
2023-03-05T21:33:55.564Z,36.50
2023-03-05T21:36:22.763Z,35.50
2023-03-05T21:38:50.245Z,28.03
2023-03-05T21:41:18.201Z,28.00
2023-03-05T21:43:45.665Z,26.40
2023-03-05T21:46:13.286Z,32.90
2023-03-05T21:48:40.496Z,34.20
2023-03-05T21:51:10.010Z,28.30
2023-03-05T21:53:37.188Z,30.60
2023-03-05T21:56:18.677Z,27.83
2023-03-05T21:58:46.571Z,30.23
